Time;durP1;ratioP1;P1;durP2;ratioP2;P2;SDS_P1;SDS_P2;PMS_P1;PMS_P2;Temp;Humidity;BMP_temperature;BMP_pressure;BME280_temperature;BME280_humidity;BME280_pressure;Samples;Min_cycle;Max_cycle;Signal;HPM_P1;HPM_P2
2022/04/22 00:00:33;;;;;;;10.25;6.65;;;10.50;99.90;;;;;;5054134;28;20044;-64
2022/04/22 00:02:58;;;;;;;10.82;6.95;;;10.50;99.90;;;;;;5062181;28;20544;-64
2022/04/22 00:05:24;;;;;;;11.63;6.53;;;10.40;99.90;;;;;;5060669;28;20167;-63
2022/04/22 00:07:50;;;;;;;10.18;6.28;;;10.40;99.90;;;;;;5053762;28;20098;-63
2022/04/22 00:10:16;;;;;;;9.70;6.65;;;10.30;99.90;;;;;;5053900;28;20090;-64
2022/04/22 00:12:43;;;;;;;11.00;6.82;;;10.30;99.90;;;;;;5063370;28;20032;-64
2022/04/22 00:15:09;;;;;;;13.68;7.45;;;10.30;99.90;;;;;;5064700;28;20485;-62
2022/04/22 00:17:35;;;;;;;10.38;7.28;;;10.30;99.90;;;;;;5040876;28;20047;-63
2022/04/22 00:20:01;;;;;;;14.95;7.20;;;10.30;99.90;;;;;;5071534;28;20044;-63
2022/04/22 00:22:27;;;;;;;12.45;7.03;;;10.30;99.90;;;;;;5066001;28;20478;-64
2022/04/22 00:24:53;;;;;;;13.00;6.65;;;10.30;99.90;;;;;;5058695;28;20389;-64
2022/04/22 00:27:20;;;;;;;13.43;7.63;;;10.20;99.90;;;;;;5065692;28;20056;-63
2022/04/22 00:29:45;;;;;;;10.77;7.60;;;10.20;99.90;;;;;;5060011;28;20041;-63
2022/04/22 00:32:11;;;;;;;11.23;8.40;;;10.10;99.90;;;;;;5053333;28;20127;-62
2022/04/22 00:34:37;;;;;;;11.35;7.85;;;10.10;99.90;;;;;;5071329;28;20042;-62
2022/04/22 00:37:03;;;;;;;10.07;7.10;;;10.10;99.90;;;;;;5065507;28;20108;-64
2022/04/22 00:39:29;;;;;;;11.38;7.45;;;10.00;99.90;;;;;;5060222;28;20028;-63
2022/04/22 00:41:55;;;;;;;14.65;7.63;;;10.00;99.90;;;;;;5073126;28;20032;-63
2022/04/22 00:44:21;;;;;;;14.75;7.93;;;10.00;99.90;;;;;;5063725;28;20075;-64
2022/04/22 00:46:47;;;;;;;12.60;7.97;;;10.00;99.90;;;;;;5058302;28;20068;-64
2022/04/22 00:49:12;;;;;;;12.48;7.45;;;9.90;99.90;;;;;;5071484;28;20108;-63
2022/04/22 00:51:38;;;;;;;14.13;7.75;;;10.00;99.90;;;;;;5050721;28;20080;-63
2022/04/22 00:54:05;;;;;;;13.95;8.27;;;9.90;99.90;;;;;;5059953;28;20047;-63
2022/04/22 00:56:31;;;;;;;13.77;8.02;;;9.90;99.90;;;;;;5048693;28;20032;-63
2022/04/22 00:58:59;;;;;;;9.68;7.03;;;9.90;99.90;;;;;;5056594;28;20091;-64
2022/04/22 01:01:25;;;;;;;12.02;8.20;;;9.80;99.90;;;;;;5053047;28;20144;-64
2022/04/22 01:12:09;;;;;;;16.08;7.78;;;9.30;99.90;;;;;;5053717;28;20127;-64
2022/04/22 01:14:35;;;;;;;13.77;8.02;;;9.20;99.90;;;;;;5061230;28;20048;-64
2022/04/22 01:17:01;;;;;;;15.23;9.20;;;9.00;99.90;;;;;;5064536;28;20037;-64
2022/04/22 01:19:30;;;;;;;15.77;8.57;;;9.00;99.90;;;;;;5067228;28;20382;-64
2022/04/22 01:21:56;;;;;;;13.98;9.00;;;8.80;99.90;;;;;;5052362;28;20037;-64
2022/04/22 01:24:22;;;;;;;14.02;8.63;;;8.80;99.90;;;;;;5056075;28;20128;-64
2022/04/22 01:26:50;;;;;;;12.43;9.18;;;8.70;99.90;;;;;;5064691;28;20615;-64
2022/04/22 01:29:16;;;;;;;14.35;9.43;;;8.70;99.90;;;;;;5057176;28;20041;-64
2022/04/22 01:31:45;;;;;;;15.23;9.30;;;8.60;99.90;;;;;;5054222;28;20040;-64
2022/04/22 01:34:11;;;;;;;15.90;10.63;;;8.60;99.90;;;;;;5069701;28;20098;-64
2022/04/22 01:36:37;;;;;;;17.40;9.70;;;8.60;99.90;;;;;;5051485;28;20040;-64
2022/04/22 01:39:03;;;;;;;18.02;9.93;;;8.60;99.90;;;;;;5046314;28;20045;-64
2022/04/22 01:41:29;;;;;;;16.30;9.95;;;8.50;99.90;;;;;;5060521;28;20504;-64
2022/04/22 01:43:56;;;;;;;14.55;9.00;;;8.50;99.90;;;;;;5055526;28;20043;-64
2022/04/22 01:46:21;;;;;;;15.05;10.05;;;8.40;99.90;;;;;;5059107;28;20037;-64
2022/04/22 01:48:47;;;;;;;16.00;10.07;;;8.40;99.90;;;;;;5062769;28;20462;-64
2022/04/22 01:51:13;;;;;;;17.02;9.50;;;8.40;99.90;;;;;;5056032;28;20055;-64
2022/04/22 01:53:39;;;;;;;19.83;11.18;;;8.30;99.90;;;;;;5072001;28;20078;-64
2022/04/22 01:56:05;;;;;;;15.57;10.70;;;8.30;99.90;;;;;;5061726;28;20045;-64
2022/04/22 01:58:31;;;;;;;18.08;11.07;;;8.20;99.90;;;;;;5057202;28;20127;-64
2022/04/22 02:00:56;;;;;;;18.05;10.43;;;8.10;99.90;;;;;;5069033;28;21873;-64
2022/04/22 02:03:22;;;;;;;17.27;10.38;;;8.10;99.90;;;;;;5052558;28;20029;-64
2022/04/22 02:05:48;;;;;;;19.02;10.57;;;8.00;99.90;;;;;;5059526;28;20128;-64
2022/04/22 02:08:14;;;;;;;22.17;10.52;;;8.00;99.90;;;;;;5065370;28;20044;-64
2022/04/22 02:10:41;;;;;;;16.83;11.55;;;8.00;99.90;;;;;;5041050;28;20525;-64
2022/04/22 02:13:08;;;;;;;22.88;11.55;;;7.90;99.90;;;;;;5069221;28;20098;-64
2022/04/22 02:15:37;;;;;;;19.52;11.57;;;7.90;99.90;;;;;;5069897;28;20511;-64
2022/04/22 02:18:03;;;;;;;19.23;11.60;;;7.80;99.90;;;;;;5054240;28;20146;-64
2022/04/22 02:20:29;;;;;;;18.52;11.82;;;7.80;99.90;;;;;;5058183;28;20513;-64
2022/04/22 02:22:54;;;;;;;16.73;10.57;;;7.80;99.90;;;;;;5049602;28;20044;-64
2022/04/22 02:25:20;;;;;;;18.30;12.23;;;7.80;99.90;;;;;;5071082;28;20079;-64
2022/04/22 02:30:31;;;;;;;16.15;11.25;;;7.60;99.90;;;;;;5064038;28;20055;-64
2022/04/22 02:32:56;;;;;;;23.38;13.57;;;7.60;99.90;;;;;;5036573;28;20037;-64
2022/04/22 02:35:22;;;;;;;17.02;11.90;;;7.50;99.90;;;;;;5034877;28;20041;-64
2022/04/22 02:37:49;;;;;;;17.90;11.52;;;7.50;99.90;;;;;;5053289;28;20441;-64
2022/04/22 02:45:44;;;;;;;19.35;12.25;;;7.40;99.90;;;;;;5068181;28;20473;-64
2022/04/22 02:48:10;;;;;;;22.48;12.45;;;7.40;99.90;;;;;;5054962;28;20043;-64
2022/04/22 02:50:36;;;;;;;18.00;11.55;;;7.40;99.90;;;;;;5061339;28;20513;-64
2022/04/22 02:53:01;;;;;;;21.80;12.82;;;7.40;99.90;;;;;;5060688;28;20033;-64
2022/04/22 02:55:27;;;;;;;17.40;11.82;;;7.40;99.90;;;;;;5048432;28;20040;-64
2022/04/22 02:57:53;;;;;;;19.02;12.32;;;7.40;99.90;;;;;;5065789;28;20049;-64
2022/04/22 03:00:19;;;;;;;19.95;13.05;;;7.40;99.90;;;;;;5059756;28;20033;-64
2022/04/22 03:02:45;;;;;;;18.42;12.50;;;7.40;99.90;;;;;;5064403;28;20033;-64
2022/04/22 03:05:11;;;;;;;18.45;13.00;;;7.40;99.90;;;;;;5050963;28;20036;-64
2022/04/22 03:07:38;;;;;;;19.15;12.30;;;7.40;99.90;;;;;;5062756;28;20384;-64
2022/04/22 03:10:05;;;;;;;22.27;12.38;;;7.40;99.90;;;;;;5064546;28;20126;-64
2022/04/22 03:12:32;;;;;;;17.90;11.80;;;7.50;99.90;;;;;;5055891;28;20052;-64
2022/04/22 03:14:58;;;;;;;20.73;12.60;;;7.40;99.90;;;;;;5068756;28;20033;-64
2022/04/22 03:17:24;;;;;;;19.92;11.77;;;7.50;99.90;;;;;;5069333;28;20045;-64
2022/04/22 03:19:50;;;;;;;17.92;11.60;;;7.50;99.90;;;;;;5052914;28;20097;-64
2022/04/22 03:22:16;;;;;;;17.95;10.88;;;7.50;99.90;;;;;;5056661;28;20099;-64
2022/04/22 03:24:42;;;;;;;18.77;10.60;;;7.50;99.90;;;;;;5066283;28;20045;-64
2022/04/22 03:27:09;;;;;;;17.58;10.77;;;7.50;99.90;;;;;;5070894;28;20045;-64
2022/04/22 03:29:35;;;;;;;16.65;10.50;;;7.50;99.90;;;;;;5051091;28;20378;-64
2022/04/22 03:32:02;;;;;;;16.92;10.55;;;7.50;99.90;;;;;;5038721;28;20044;-64
2022/04/22 03:34:28;;;;;;;14.80;10.43;;;7.50;99.90;;;;;;5051374;28;20041;-64
2022/04/22 03:36:54;;;;;;;15.25;10.88;;;7.50;99.90;;;;;;5052529;28;20041;-65
2022/04/22 03:39:20;;;;;;;14.93;9.95;;;7.40;99.90;;;;;;5062231;28;20106;-64
2022/04/22 03:41:46;;;;;;;12.88;9.35;;;7.40;99.90;;;;;;5066704;28;20040;-64
2022/04/22 03:44:12;;;;;;;12.77;8.75;;;7.40;99.90;;;;;;5062762;28;20037;-64
2022/04/22 03:46:38;;;;;;;15.25;9.52;;;7.40;99.90;;;;;;5069270;28;20051;-64
2022/04/22 03:49:04;;;;;;;15.02;9.13;;;7.30;99.90;;;;;;5074265;28;20037;-64
2022/04/22 03:51:31;;;;;;;14.57;9.13;;;7.30;99.90;;;;;;5053118;28;20055;-64
2022/04/22 03:53:57;;;;;;;11.32;8.02;;;7.20;99.90;;;;;;5064954;28;20040;-64
2022/04/22 03:59:08;;;;;;;12.55;8.20;;;7.20;99.90;;;;;;5055219;28;20128;-64
2022/04/22 04:01:33;;;;;;;13.68;8.43;;;7.10;99.90;;;;;;5067387;28;20135;-64
2022/04/22 04:04:00;;;;;;;14.65;8.30;;;7.10;99.90;;;;;;5047497;28;20409;-64
2022/04/22 04:06:26;;;;;;;14.00;8.40;;;7.00;99.90;;;;;;5061949;28;20037;-64
2022/04/22 04:17:06;;;;;;;13.05;7.78;;;6.80;99.90;;;;;;5059830;28;20059;-64
2022/04/22 04:25:02;;;;;;;12.55;7.70;;;6.80;99.90;;;;;;5053061;28;20525;-64
2022/04/22 04:27:29;;;;;;;14.50;7.57;;;6.80;99.90;;;;;;5053669;28;20120;-64
2022/04/22 04:29:55;;;;;;;11.48;7.93;;;6.80;99.90;;;;;;5054638;28;20128;-64
2022/04/22 04:32:21;;;;;;;17.20;8.05;;;6.90;99.90;;;;;;5052646;28;20367;-64
2022/04/22 04:34:47;;;;;;;9.63;6.80;;;6.90;99.90;;;;;;5064116;28;20044;-64
2022/04/22 04:37:13;;;;;;;15.07;7.45;;;7.00;99.90;;;;;;5059469;28;20036;-64
2022/04/22 04:39:40;;;;;;;11.00;7.28;;;7.00;99.90;;;;;;5056466;28;20109;-64
2022/04/22 04:42:08;;;;;;;13.77;6.72;;;7.00;99.90;;;;;;5062021;28;20037;-64
2022/04/22 04:44:36;;;;;;;11.75;7.25;;;7.10;99.90;;;;;;5062176;28;20115;-64
2022/04/22 04:47:02;;;;;;;11.70;6.70;;;7.20;99.90;;;;;;5066710;28;20044;-64
2022/04/22 04:49:29;;;;;;;14.40;8.93;;;7.20;99.90;;;;;;5052775;28;20040;-64
2022/04/22 04:51:55;;;;;;;9.07;6.55;;;7.30;99.90;;;;;;5044068;28;20045;-64
2022/04/22 04:54:21;;;;;;;13.40;7.20;;;7.30;99.90;;;;;;5065812;28;20039;-64
2022/04/22 04:56:46;;;;;;;13.05;7.55;;;7.40;99.90;;;;;;5055117;28;20041;-64
2022/04/22 04:59:12;;;;;;;14.90;7.57;;;7.40;99.90;;;;;;5073089;28;20124;-64
2022/04/22 05:01:38;;;;;;;11.23;6.32;;;7.40;99.90;;;;;;5066654;28;20035;-64
2022/04/22 05:04:04;;;;;;;13.27;6.68;;;7.40;99.90;;;;;;5055407;28;20032;-64
2022/04/22 05:06:30;;;;;;;12.10;7.00;;;7.50;99.90;;;;;;5061763;28;20033;-63
2022/04/22 05:08:56;;;;;;;10.38;6.47;;;7.50;99.90;;;;;;5063688;28;20103;-64
2022/04/22 05:11:22;;;;;;;9.43;6.38;;;7.50;99.90;;;;;;5070035;28;20430;-63
2022/04/22 05:13:48;;;;;;;10.35;6.20;;;7.50;99.90;;;;;;5040348;28;20120;-63
2022/04/22 05:16:14;;;;;;;8.93;6.13;;;7.60;99.90;;;;;;5060773;28;20370;-64
2022/04/22 05:18:41;;;;;;;9.35;5.85;;;7.70;99.90;;;;;;5054779;28;20135;-63
2022/04/22 05:21:07;;;;;;;9.25;5.65;;;7.70;99.90;;;;;;5070504;28;20076;-63
2022/04/22 05:23:33;;;;;;;7.65;5.47;;;7.80;99.90;;;;;;5066913;28;20433;-64
2022/04/22 05:26:01;;;;;;;8.30;5.10;;;7.90;99.90;;;;;;5055844;28;20053;-63
2022/04/22 05:28:31;;;;;;;13.05;6.25;;;7.90;99.90;;;;;;5058978;28;20049;-63
2022/04/22 05:33:43;;;;;;;10.85;5.50;;;8.10;99.90;;;;;;5068353;28;20120;-64
2022/04/22 05:36:09;;;;;;;7.40;5.32;;;8.10;99.90;;;;;;5056626;28;20033;-63
2022/04/22 05:38:35;;;;;;;8.73;5.75;;;8.20;99.90;;;;;;5065362;28;20045;-63
2022/04/22 05:41:01;;;;;;;10.70;5.65;;;8.20;99.90;;;;;;5057898;28;20516;-64
2022/04/22 05:43:28;;;;;;;12.02;6.30;;;8.30;99.90;;;;;;5052215;28;20068;-63
2022/04/22 05:45:54;;;;;;;9.27;5.50;;;8.40;99.90;;;;;;5050385;28;20066;-64
2022/04/22 05:48:20;;;;;;;11.10;5.15;;;8.40;99.90;;;;;;5060575;28;20571;-64
2022/04/22 05:50:46;;;;;;;9.93;4.57;;;8.50;99.90;;;;;;5060654;28;20131;-65
2022/04/22 05:53:11;;;;;;;10.52;6.07;;;8.60;99.90;;;;;;5071902;28;20066;-65
2022/04/22 05:55:37;;;;;;;6.70;4.85;;;8.70;99.90;;;;;;5056046;28;20116;-64
2022/04/22 05:58:03;;;;;;;8.63;4.88;;;8.80;99.90;;;;;;5055705;28;20461;-63
2022/04/22 06:00:38;;;;;;;8.40;4.90;;;8.80;99.90;;;;;;5065221;28;20532;-63
2022/04/22 06:03:04;;;;;;;9.10;5.28;;;8.90;99.90;;;;;;5051622;28;20056;-62
2022/04/22 06:05:31;;;;;;;9.27;5.15;;;9.00;99.90;;;;;;5062231;28;20059;-64
2022/04/22 06:10:41;;;;;;;9.10;4.72;;;9.30;99.90;;;;;;5055049;28;20049;-64
2022/04/22 06:13:07;;;;;;;4.50;2.95;;;9.60;99.90;;;;;;5054784;28;20044;-63
2022/04/22 06:15:33;;;;;;;8.98;4.82;;;9.90;99.90;;;;;;5064748;28;20035;-64
2022/04/22 06:18:00;;;;;;;6.75;3.97;;;10.10;99.90;;;;;;5056778;28;20131;-63
2022/04/22 06:20:26;;;;;;;6.85;3.40;;;10.40;99.90;;;;;;5066487;28;20901;-63
2022/04/22 06:22:52;;;;;;;10.30;4.10;;;10.60;99.90;;;;;;5052770;28;20115;-63
2022/04/22 06:25:18;;;;;;;6.90;4.40;;;10.80;99.90;;;;;;5038179;28;20071;-63
2022/04/22 06:27:45;;;;;;;8.40;4.25;;;11.10;99.90;;;;;;5065470;28;20493;-63
2022/04/22 06:30:16;;;;;;;6.70;3.80;;;11.30;99.90;;;;;;5060096;28;20083;-64
2022/04/22 06:32:44;;;;;;;6.18;4.55;;;11.40;99.90;;;;;;5064422;28;20049;-64
2022/04/22 06:35:11;;;;;;;9.00;4.97;;;11.60;99.90;;;;;;5071621;28;20036;-63
2022/04/22 06:37:42;;;;;;;7.10;3.88;;;11.80;99.90;;;;;;5049887;28;20107;-64
2022/04/22 06:45:49;;;;;;;8.35;4.40;;;12.20;99.90;;;;;;5052613;28;20041;-65
2022/04/22 06:48:32;;;;;;;6.07;3.80;;;12.30;99.90;;;;;;5064207;28;20063;-65
2022/04/22 06:51:00;;;;;;;7.63;4.90;;;12.50;99.90;;;;;;5059305;28;20137;-65
2022/04/22 06:53:27;;;;;;;7.85;3.88;;;12.70;99.90;;;;;;5065785;28;20516;-64
2022/04/22 06:55:54;;;;;;;8.00;4.22;;;13.00;99.90;;;;;;5051137;28;20401;-64
2022/04/22 06:58:21;;;;;;;4.63;3.55;;;13.00;99.90;;;;;;5059979;28;20052;-64
2022/04/22 07:00:48;;;;;;;5.03;3.40;;;13.00;99.90;;;;;;5061300;28;20033;-64
2022/04/22 07:03:16;;;;;;;4.13;3.42;;;13.10;99.90;;;;;;5059644;28;20048;-65
2022/04/22 07:05:45;;;;;;;6.55;3.95;;;13.10;99.90;;;;;;5071032;28;20578;-65
2022/04/22 07:08:14;;;;;;;5.82;3.65;;;13.00;99.90;;;;;;5052183;28;20103;-65
2022/04/22 07:10:45;;;;;;;5.03;3.90;;;13.10;99.90;;;;;;5056960;28;20405;-65
2022/04/22 07:13:12;;;;;;;6.05;3.33;;;13.10;99.90;;;;;;5057964;28;20616;-63
2022/04/22 07:15:39;;;;;;;8.63;3.92;;;13.00;99.90;;;;;;5074099;28;20404;-64
2022/04/22 07:18:06;;;;;;;5.15;3.75;;;12.90;99.90;;;;;;5070231;28;20522;-64
2022/04/22 07:20:32;;;;;;;6.38;3.45;;;13.00;99.90;;;;;;5057291;28;20048;-64
2022/04/22 07:22:59;;;;;;;5.43;3.40;;;13.10;99.90;;;;;;5069566;28;20074;-65
2022/04/22 07:25:26;;;;;;;6.43;3.40;;;13.20;99.90;;;;;;5058036;28;20132;-65
2022/04/22 07:27:52;;;;;;;5.70;3.65;;;13.30;99.90;;;;;;5057328;28;20198;-65
2022/04/22 07:30:20;;;;;;;5.57;3.17;;;13.40;99.90;;;;;;5067287;28;20401;-66
2022/04/22 07:32:48;;;;;;;5.93;3.53;;;13.60;99.90;;;;;;5060291;28;20117;-63
2022/04/22 07:35:19;;;;;;;7.68;3.15;;;13.60;99.90;;;;;;5071584;28;20052;-64
2022/04/22 07:37:47;;;;;;;8.75;3.38;;;13.50;99.90;;;;;;5073991;28;20044;-65
2022/04/22 07:40:15;;;;;;;7.22;3.15;;;13.60;99.90;;;;;;5056102;28;20041;-64
2022/04/22 07:48:19;;;;;;;5.40;2.80;;;14.10;99.90;;;;;;5072197;28;20047;-66
2022/04/22 07:50:47;;;;;;;4.50;3.17;;;14.30;99.90;;;;;;5054727;28;20044;-65
2022/04/22 07:53:17;;;;;;;6.47;2.78;;;14.50;99.90;;;;;;5062811;28;20045;-67
2022/04/22 07:55:43;;;;;;;;;;;14.70;99.90;;;;;;5061961;28;20041;-66
2022/04/22 07:58:13;;;;;;;4.53;3.08;;;15.00;99.90;;;;;;5066400;28;19973;-66
2022/04/22 08:00:43;;;;;;;;;;;15.20;99.90;;;;;;5062098;28;20032;-65
2022/04/22 08:03:09;;;;;;;6.38;2.67;;;15.40;99.90;;;;;;5067408;28;19916;-65
2022/04/22 08:05:37;;;;;;;6.55;2.60;;;15.50;99.90;;;;;;5058831;28;20052;-65
2022/04/22 08:08:05;;;;;;;3.75;2.75;;;15.60;99.90;;;;;;5055361;28;20041;-66
2022/04/22 08:10:32;;;;;;;7.85;3.17;;;15.70;99.90;;;;;;5065720;28;20040;-65
2022/04/22 08:12:57;;;;;;;4.43;2.75;;;16.00;99.90;;;;;;5068901;28;20174;-65
2022/04/22 08:15:23;;;;;;;4.78;2.50;;;16.30;99.90;;;;;;5057176;28;20544;-65
2022/04/22 08:17:49;;;;;;;5.28;2.30;;;16.60;99.90;;;;;;5056014;28;20033;-65
2022/04/22 08:20:15;;;;;;;5.60;2.67;;;16.70;98.70;;;;;;5065245;28;20167;-64
2022/04/22 08:22:44;;;;;;;5.45;2.35;;;16.80;97.50;;;;;;5061769;28;20121;-65
2022/04/22 08:25:13;;;;;;;6.40;2.42;;;16.90;97.70;;;;;;5066067;28;20135;-63
2022/04/22 08:27:40;;;;;;;5.00;2.20;;;17.00;96.50;;;;;;5065519;28;20059;-64
2022/04/22 08:30:08;;;;;;;4.75;2.00;;;17.20;95.70;;;;;;5068752;28;20037;-65
2022/04/22 08:32:34;;;;;;;4.22;2.65;;;17.40;96.40;;;;;;5063259;28;20044;-65
2022/04/22 08:35:00;;;;;;;4.07;2.25;;;17.60;96.50;;;;;;5060464;28;20048;-65
2022/04/22 08:37:26;;;;;;;6.07;2.20;;;17.80;95.50;;;;;;5060955;28;20052;-65
2022/04/22 08:39:54;;;;;;;3.50;1.95;;;18.00;94.70;;;;;;5059249;28;20473;-65
2022/04/22 08:42:24;;;;;;;5.20;2.22;;;18.20;93.70;;;;;;5057714;28;20548;-65
2022/04/22 08:44:52;;;;;;;3.53;2.38;;;18.30;92.20;;;;;;5055993;28;20037;-65
2022/04/22 08:50:12;;;;;;;3.63;2.00;;;18.40;90.00;;;;;;5055318;28;20056;-64
2022/04/22 08:52:42;;;;;;;6.22;2.65;;;18.50;90.20;;;;;;5062131;28;20547;-66
2022/04/22 08:55:08;;;;;;;3.20;2.05;;;18.70;88.20;;;;;;5054723;28;20045;-65
2022/04/22 08:57:35;;;;;;;5.63;2.45;;;18.80;84.40;;;;;;5052338;28;20067;-66
2022/04/22 09:00:07;;;;;;;5.40;1.95;;;19.00;89.10;;;;;;5052451;28;20047;-65
2022/04/22 09:02:33;;;;;;;3.60;2.25;;;19.10;84.50;;;;;;5051606;28;20142;-64
2022/04/22 09:04:59;;;;;;;4.15;2.50;;;19.20;82.60;;;;;;5057016;28;20045;-64
2022/04/22 09:07:29;;;;;;;6.22;2.05;;;19.40;85.10;;;;;;5054672;28;20711;-65
2022/04/22 09:09:55;;;;;;;3.47;1.80;;;19.50;84.80;;;;;;5053419;28;20052;-65
2022/04/22 09:12:23;;;;;;;5.80;2.63;;;19.70;82.60;;;;;;5053179;28;20029;-63
2022/04/22 09:14:54;;;;;;;3.25;1.67;;;20.00;81.30;;;;;;5057756;28;20028;-65
2022/04/22 09:17:38;;;;;;;8.82;2.20;;;20.20;77.80;;;;;;5052813;28;20037;-66
2022/04/22 09:20:04;;;;;;;7.32;2.50;;;20.20;77.50;;;;;;5056123;28;20032;-65
2022/04/22 09:22:35;;;;;;;6.00;2.30;;;20.30;77.80;;;;;;5056607;28;20044;-64
2022/04/22 09:25:03;;;;;;;4.60;2.30;;;20.30;78.90;;;;;;5061094;28;20060;-65
2022/04/22 09:27:35;;;;;;;7.68;2.58;;;20.50;77.40;;;;;;5053677;28;20151;-65
2022/04/22 09:30:09;;;;;;;4.47;1.85;;;20.60;77.10;;;;;;5036463;28;20079;-65
2022/04/22 09:32:41;;;;;;;4.05;2.15;;;20.50;68.70;;;;;;5035156;28;20128;-64
2022/04/22 09:35:11;;;;;;;7.22;2.58;;;20.30;66.00;;;;;;5052997;28;20037;-64
2022/04/22 09:43:24;;;;;;;4.68;2.20;;;20.80;68.60;;;;;;5058931;28;20048;-67
2022/04/22 09:45:54;;;;;;;4.20;1.98;;;20.70;69.70;;;;;;5056128;28;20036;-65
2022/04/22 09:48:20;;;;;;;;;;;20.80;70.80;;;;;;5053219;28;20032;-66
2022/04/22 09:50:52;;;;;;;8.85;2.63;;;20.90;71.90;;;;;;5055782;28;19920;-66
2022/04/22 09:53:35;;;;;;;2.72;1.60;;;21.00;70.30;;;;;;5053404;28;20393;-65
2022/04/22 09:56:10;;;;;;;8.88;2.63;;;21.00;66.50;;;;;;5052509;28;20056;-66
2022/04/22 09:58:36;;;;;;;4.90;1.88;;;21.10;64.50;;;;;;5051581;28;20037;-68
2022/04/22 10:01:05;;;;;;;6.22;2.10;;;21.20;63.50;;;;;;5035949;28;20055;-65
2022/04/22 10:03:36;;;;;;;3.25;2.10;;;21.10;61.50;;;;;;5053234;28;20497;-69
2022/04/22 10:06:04;;;;;;;4.90;2.20;;;21.00;56.40;;;;;;5057581;28;20040;-65
2022/04/22 10:08:35;;;;;;;4.72;1.77;;;20.80;60.20;;;;;;5051612;28;20037;-67
2022/04/22 10:11:02;;;;;;;5.53;1.75;;;20.90;61.20;;;;;;5055435;28;20046;-67
2022/04/22 10:13:48;;;;;;;3.47;1.92;;;20.90;59.50;;;;;;5053338;28;20499;-69
2022/04/22 10:16:15;;;;;;;7.13;2.20;;;21.00;59.40;;;;;;5054001;28;20044;-66
2022/04/22 10:18:42;;;;;;;3.58;2.00;;;21.10;61.70;;;;;;5054830;28;20067;-67
2022/04/22 10:21:09;;;;;;;4.88;1.98;;;21.30;59.50;;;;;;5047975;28;20095;-68
2022/04/22 10:23:36;;;;;;;4.65;1.80;;;21.40;56.50;;;;;;5052499;28;20037;-67
2022/04/22 10:26:03;;;;;;;4.95;1.92;;;21.20;52.90;;;;;;5054432;28;20128;-67
2022/04/22 10:28:30;;;;;;;5.35;2.03;;;20.80;55.90;;;;;;5054978;28;20405;-64
2022/04/22 10:31:00;;;;;;;7.32;2.25;;;20.70;57.00;;;;;;5057529;28;20135;-66
2022/04/22 10:33:27;;;;;;;5.47;2.10;;;20.90;57.10;;;;;;5053414;28;20083;-66
2022/04/22 10:35:59;;;;;;;3.95;1.95;;;21.00;54.90;;;;;;5050986;28;20051;-66
2022/04/22 10:38:47;;;;;;;4.55;2.28;;;20.90;55.20;;;;;;5049389;28;20040;-67
2022/04/22 10:41:18;;;;;;;2.53;1.60;;;21.00;57.30;;;;;;5051652;28;20133;-67
2022/04/22 10:49:44;;;;;;;6.40;2.72;;;21.20;56.50;;;;;;5056788;28;20103;-68
2022/04/22 10:52:15;;;;;;;4.90;2.08;;;21.60;58.00;;;;;;5060911;28;20128;-66
2022/04/22 10:54:53;;;;;;;5.38;2.58;;;21.90;59.80;;;;;;5054196;28;20048;-66
2022/04/22 10:57:25;;;;;;;15.32;2.97;;;22.20;58.70;;;;;;5061467;28;20045;-67
2022/04/22 11:00:06;;;;;;;5.72;2.00;;;22.30;59.90;;;;;;5062362;28;20039;-68
2022/04/22 11:02:34;;;;;;;5.05;2.13;;;22.50;55.80;;;;;;5056135;28;20088;-67
2022/04/22 11:05:19;;;;;;;5.10;2.28;;;22.40;54.10;;;;;;5038760;28;20392;-67
2022/04/22 11:07:52;;;;;;;4.80;2.28;;;22.30;55.70;;;;;;5054493;28;20428;-69
2022/04/22 11:10:26;;;;;;;3.85;2.45;;;22.30;54.40;;;;;;5065996;28;20114;-68
2022/04/22 11:13:02;;;;;;;5.70;2.65;;;22.30;55.30;;;;;;5062847;28;20044;-67
2022/04/22 11:15:43;;;;;;;6.00;2.70;;;22.60;54.90;;;;;;5074621;28;20047;-67
2022/04/22 11:18:12;;;;;;;7.10;2.45;;;22.50;51.50;;;;;;5059109;28;20073;-69
2022/04/22 11:21:03;;;;;;;6.03;2.20;;;22.40;53.40;;;;;;5062184;28;20079;-67
2022/04/22 11:23:41;;;;;;;3.88;2.40;;;22.30;56.20;;;;;;5066841;28;20075;-69
2022/04/22 11:26:07;;;;;;;28.38;4.25;;;22.50;56.60;;;;;;5058115;28;20600;-66
2022/04/22 11:28:35;;;;;;;5.70;2.83;;;22.60;58.20;;;;;;5057367;28;20124;-67
2022/04/22 11:31:04;;;;;;;5.20;2.72;;;22.70;57.70;;;;;;5056338;28;20041;-67
2022/04/22 11:33:40;;;;;;;3.50;2.73;;;22.80;56.70;;;;;;5071094;28;20489;-67
2022/04/22 11:36:07;;;;;;;5.05;2.85;;;23.00;55.90;;;;;;5072656;28;20317;-67
2022/04/22 11:38:33;;;;;;;3.92;2.65;;;23.10;57.20;;;;;;5056106;28;20458;-68
2022/04/22 11:40:59;;;;;;;8.73;3.30;;;23.10;57.90;;;;;;5064555;28;20115;-67
2022/04/22 11:43:28;;;;;;;5.47;3.08;;;23.00;54.40;;;;;;5069260;28;20028;-66
2022/04/22 11:45:54;;;;;;;7.65;3.35;;;22.90;54.90;;;;;;5074339;28;20049;-65
2022/04/22 11:48:24;;;;;;;4.40;3.10;;;23.00;58.30;;;;;;5055899;28;20048;-69
2022/04/22 11:50:50;;;;;;;7.40;3.10;;;23.10;56.60;;;;;;5062909;28;20041;-65
2022/04/22 11:53:22;;;;;;;4.47;2.92;;;23.00;56.20;;;;;;5060834;28;20036;-66
2022/04/22 11:55:48;;;;;;;3.92;2.70;;;23.00;57.30;;;;;;5058704;28;20053;-67
2022/04/22 11:58:16;;;;;;;7.20;3.35;;;23.00;57.30;;;;;;5074282;28;20040;-66
2022/04/22 12:06:16;;;;;;;6.18;3.50;;;23.00;57.40;;;;;;5073971;28;20056;-65
2022/04/22 12:09:00;;;;;;;5.70;3.70;;;22.80;55.70;;;;;;5062800;28;20039;-66
2022/04/22 12:11:27;;;;;;;3.95;2.80;;;22.70;54.70;;;;;;5055232;28;20734;-67
2022/04/22 12:13:54;;;;;;;5.45;3.45;;;22.50;54.40;;;;;;5069551;28;20044;-66
2022/04/22 12:16:28;;;;;;;5.93;3.50;;;22.30;54.30;;;;;;5055351;28;20116;-67
2022/04/22 12:18:58;;;;;;;5.53;2.95;;;22.10;54.90;;;;;;5056200;28;20044;-66
2022/04/22 12:21:32;;;;;;;5.68;3.70;;;22.10;56.40;;;;;;5060532;28;20044;-67
2022/04/22 12:24:02;;;;;;;4.65;3.20;;;22.20;56.90;;;;;;5056945;28;20489;-66
2022/04/22 12:26:36;;;;;;;4.63;3.28;;;22.30;58.80;;;;;;5074390;28;20473;-66
2022/04/22 12:29:10;;;;;;;5.70;4.05;;;22.50;57.40;;;;;;5066177;28;20536;-67
2022/04/22 12:31:40;;;;;;;7.95;3.65;;;22.40;58.40;;;;;;5062603;28;20041;-67
2022/04/22 12:34:08;;;;;;;5.72;3.55;;;22.50;59.20;;;;;;5073081;28;20614;-68
2022/04/22 12:36:37;;;;;;;6.18;3.60;;;22.50;56.40;;;;;;5072939;28;20036;-66
2022/04/22 12:39:08;;;;;;;7.17;3.63;;;22.30;56.30;;;;;;5074462;28;20101;-65
2022/04/22 12:41:47;;;;;;;8.05;3.88;;;22.10;56.80;;;;;;5062397;28;20036;-66
2022/04/22 12:44:14;;;;;;;8.50;3.95;;;22.10;59.30;;;;;;5056734;28;20072;-66
2022/04/22 12:52:22;;;;;;;4.97;3.30;;;21.90;57.40;;;;;;5058580;28;20056;-65
2022/04/22 12:54:49;;;;;;;5.40;3.15;;;21.80;56.60;;;;;;5059972;28;20033;-63
2022/04/22 12:57:27;;;;;;;6.75;3.75;;;21.70;54.40;;;;;;5055207;28;20041;-64
2022/04/22 12:59:55;;;;;;;6.78;3.60;;;21.60;55.30;;;;;;5052958;28;20500;-63
2022/04/22 13:02:35;;;;;;;4.30;3.15;;;21.50;56.40;;;;;;5058986;28;20045;-64
2022/04/22 13:05:03;;;;;;;4.95;3.30;;;21.50;55.10;;;;;;5054303;28;20041;-64
2022/04/22 13:07:51;;;;;;;4.73;3.27;;;21.40;54.30;;;;;;5053826;28;20047;-66
2022/04/22 13:10:20;;;;;;;5.32;3.67;;;21.20;51.90;;;;;;5058439;28;20052;-63
2022/04/22 13:12:48;;;;;;;7.50;4.00;;;20.80;54.70;;;;;;5059020;28;20040;-65
2022/04/22 13:15:19;;;;;;;5.78;4.00;;;20.70;56.60;;;;;;5054976;28;20697;-64
2022/04/22 13:17:47;;;;;;;4.55;3.28;;;20.80;56.90;;;;;;5053085;28;20068;-64
2022/04/22 13:20:15;;;;;;;8.10;3.85;;;20.90;57.80;;;;;;5064054;28;20029;-63
2022/04/22 13:22:41;;;;;;;4.78;3.90;;;21.00;57.20;;;;;;5064797;28;20432;-65
2022/04/22 13:25:11;;;;;;;8.25;4.05;;;21.10;56.90;;;;;;5057100;28;20061;-65
2022/04/22 13:27:39;;;;;;;7.38;4.20;;;20.90;56.50;;;;;;5068239;28;20052;-64
2022/04/22 13:30:07;;;;;;;7.63;3.90;;;20.70;56.30;;;;;;5061691;28;20129;-65
2022/04/22 13:32:33;;;;;;;6.43;4.18;;;20.40;56.20;;;;;;5064951;28;20457;-66
2022/04/22 13:34:59;;;;;;;5.55;4.45;;;20.10;56.70;;;;;;5055468;28;20603;-66
2022/04/22 13:37:25;;;;;;;7.97;5.10;;;19.80;57.00;;;;;;5071590;28;20029;-64
2022/04/22 13:39:51;;;;;;;4.43;2.88;;;19.60;57.40;;;;;;5068443;28;20037;-65
2022/04/22 13:42:18;;;;;;;6.68;4.35;;;19.60;56.90;;;;;;5055798;28;20384;-65
2022/04/22 13:53:18;;;;;;;7.63;4.70;;;19.40;59.60;;;;;;5064015;28;20047;-66
2022/04/22 13:55:44;;;;;;;7.63;4.72;;;19.80;57.90;;;;;;5055557;28;20086;-66
2022/04/22 13:58:11;;;;;;;7.28;4.18;;;19.80;55.80;;;;;;5068558;28;20480;-65
2022/04/22 14:00:37;;;;;;;8.35;5.32;;;19.80;57.20;;;;;;5062721;28;20120;-67
2022/04/22 14:03:03;;;;;;;8.15;4.75;;;20.10;57.90;;;;;;5058760;28;20115;-66
2022/04/22 14:05:29;;;;;;;10.73;5.13;;;20.20;57.50;;;;;;5056232;28;20119;-66
2022/04/22 14:07:55;;;;;;;8.48;5.47;;;20.40;57.10;;;;;;5071643;28;20526;-67
2022/04/22 14:10:21;;;;;;;9.10;5.40;;;20.40;56.20;;;;;;5062057;28;20052;-67
2022/04/22 14:12:47;;;;;;;6.43;4.68;;;20.20;56.20;;;;;;5054226;28;20055;-65